Pecan Grove, Mississippi
Current Conditions -  °F | °C
As of 2:15 AM on Sunday 23 Nov 2014 (Local Time) from KPIB Reporting Station
Overcast Overcast  
Wind Chill: 61°   Ceiling: 500
Heat Index: 61°   Visibility: 8mi
Dew Point: 55°   Wind: 8mph
Humidity: 82%   Direction: 110°ESE
Pressure: 29.87"   Gusts: NA
Location:  31.5533°N, 89.2322°W
Report Text: KPIB 230815Z AUTO 11007KT 8SM OVC005 16/13 A2987 RMK AO1
Loading
Personal Weather Stations






























Interactive Weather Map New forecast layout! Learn more

10-Day Weather Forecast

Advertisements
Track Severe Weather on mobile